sensor_id;sensor_type;location;lat;lon;timestamp;temperature;humidity
9919;DHT22;4998;51.024;13.828;2023-05-07T00:01:39;14.60;85.20
9919;DHT22;4998;51.024;13.828;2023-05-07T00:04:06;14.60;85.40
9919;DHT22;4998;51.024;13.828;2023-05-07T00:06:34;14.70;86.40
9919;DHT22;4998;51.024;13.828;2023-05-07T00:09:02;14.70;85.70
9919;DHT22;4998;51.024;13.828;2023-05-07T00:11:30;14.70;85.60
9919;DHT22;4998;51.024;13.828;2023-05-07T00:13:57;14.70;85.70
9919;DHT22;4998;51.024;13.828;2023-05-07T00:16:24;14.70;85.70
9919;DHT22;4998;51.024;13.828;2023-05-07T00:18:51;14.70;86.00
9919;DHT22;4998;51.024;13.828;2023-05-07T00:21:18;14.70;86.00
9919;DHT22;4998;51.024;13.828;2023-05-07T00:23:48;14.70;86.10
9919;DHT22;4998;51.024;13.828;2023-05-07T00:26:16;14.70;86.40
9919;DHT22;4998;51.024;13.828;2023-05-07T00:28:43;14.70;86.30
9919;DHT22;4998;51.024;13.828;2023-05-07T00:31:10;14.70;86.20
9919;DHT22;4998;51.024;13.828;2023-05-07T00:33:37;14.70;86.10
9919;DHT22;4998;51.024;13.828;2023-05-07T00:36:04;14.70;86.20
9919;DHT22;4998;51.024;13.828;2023-05-07T00:38:32;14.70;86.30
9919;DHT22;4998;51.024;13.828;2023-05-07T00:41:00;14.70;86.40
9919;DHT22;4998;51.024;13.828;2023-05-07T00:43:27;14.70;86.60
9919;DHT22;4998;51.024;13.828;2023-05-07T00:45:55;14.80;86.50
9919;DHT22;4998;51.024;13.828;2023-05-07T00:48:22;14.80;86.50
9919;DHT22;4998;51.024;13.828;2023-05-07T00:50:50;14.80;86.50
9919;DHT22;4998;51.024;13.828;2023-05-07T00:53:17;14.80;86.20
9919;DHT22;4998;51.024;13.828;2023-05-07T00:55:44;14.80;86.10
9919;DHT22;4998;51.024;13.828;2023-05-07T00:58:13;14.80;86.30
9919;DHT22;4998;51.024;13.828;2023-05-07T01:00:40;14.70;86.20
9919;DHT22;4998;51.024;13.828;2023-05-07T01:03:07;14.70;86.10
9919;DHT22;4998;51.024;13.828;2023-05-07T01:05:34;14.70;86.30
9919;DHT22;4998;51.024;13.828;2023-05-07T01:08:02;14.70;86.40
9919;DHT22;4998;51.024;13.828;2023-05-07T01:10:30;14.70;86.10
9919;DHT22;4998;51.024;13.828;2023-05-07T01:12:58;14.60;86.00
9919;DHT22;4998;51.024;13.828;2023-05-07T01:15:27;14.60;86.10
9919;DHT22;4998;51.024;13.828;2023-05-07T01:17:56;14.60;86.30
9919;DHT22;4998;51.024;13.828;2023-05-07T01:20:23;14.60;86.40
9919;DHT22;4998;51.024;13.828;2023-05-07T01:22:53;14.60;86.60
9919;DHT22;4998;51.024;13.828;2023-05-07T01:25:21;14.70;87.00
9919;DHT22;4998;51.024;13.828;2023-05-07T01:27:48;14.60;86.80
9919;DHT22;4998;51.024;13.828;2023-05-07T01:30:16;14.60;86.80
9919;DHT22;4998;51.024;13.828;2023-05-07T01:32:49;14.60;87.00
9919;DHT22;4998;51.024;13.828;2023-05-07T01:35:19;14.60;87.10
9919;DHT22;4998;51.024;13.828;2023-05-07T01:37:48;14.60;87.00
9919;DHT22;4998;51.024;13.828;2023-05-07T01:40:17;14.70;86.70
9919;DHT22;4998;51.024;13.828;2023-05-07T01:42:45;14.70;86.60
9919;DHT22;4998;51.024;13.828;2023-05-07T01:45:13;14.70;86.60
9919;DHT22;4998;51.024;13.828;2023-05-07T01:47:41;14.70;86.40
9919;DHT22;4998;51.024;13.828;2023-05-07T01:50:09;14.70;86.10
9919;DHT22;4998;51.024;13.828;2023-05-07T01:52:37;14.60;86.00
9919;DHT22;4998;51.024;13.828;2023-05-07T01:55:06;14.70;86.00
9919;DHT22;4998;51.024;13.828;2023-05-07T01:57:34;14.70;85.90
9919;DHT22;4998;51.024;13.828;2023-05-07T02:00:01;14.60;86.10
9919;DHT22;4998;51.024;13.828;2023-05-07T02:02:31;14.60;86.10
9919;DHT22;4998;51.024;13.828;2023-05-07T02:04:59;14.60;86.10
9919;DHT22;4998;51.024;13.828;2023-05-07T02:07:27;14.60;86.30
9919;DHT22;4998;51.024;13.828;2023-05-07T02:09:54;14.60;86.40
9919;DHT22;4998;51.024;13.828;2023-05-07T02:12:21;14.60;86.20
9919;DHT22;4998;51.024;13.828;2023-05-07T02:14:50;14.60;86.20
9919;DHT22;4998;51.024;13.828;2023-05-07T02:17:17;14.60;86.80
9919;DHT22;4998;51.024;13.828;2023-05-07T02:19:44;14.50;85.90
9919;DHT22;4998;51.024;13.828;2023-05-07T02:22:11;14.50;86.10
9919;DHT22;4998;51.024;13.828;2023-05-07T02:24:38;14.50;86.20
9919;DHT22;4998;51.024;13.828;2023-05-07T02:27:05;14.50;86.40
9919;DHT22;4998;51.024;13.828;2023-05-07T02:29:32;14.50;86.40
9919;DHT22;4998;51.024;13.828;2023-05-07T02:32:00;14.50;86.60
9919;DHT22;4998;51.024;13.828;2023-05-07T02:34:27;14.50;86.50
9919;DHT22;4998;51.024;13.828;2023-05-07T02:36:54;14.50;86.30
9919;DHT22;4998;51.024;13.828;2023-05-07T02:39:21;14.50;86.20
9919;DHT22;4998;51.024;13.828;2023-05-07T02:41:48;14.50;86.00
9919;DHT22;4998;51.024;13.828;2023-05-07T02:44:15;14.50;86.10
9919;DHT22;4998;51.024;13.828;2023-05-07T02:46:42;14.50;86.20
9919;DHT22;4998;51.024;13.828;2023-05-07T02:49:10;14.50;86.60
9919;DHT22;4998;51.024;13.828;2023-05-07T02:51:37;14.50;86.40
9919;DHT22;4998;51.024;13.828;2023-05-07T02:54:04;14.50;87.10
9919;DHT22;4998;51.024;13.828;2023-05-07T02:56:32;14.40;86.20
9919;DHT22;4998;51.024;13.828;2023-05-07T02:58:59;14.40;86.40
9919;DHT22;4998;51.024;13.828;2023-05-07T03:01:26;14.40;86.50
9919;DHT22;4998;51.024;13.828;2023-05-07T03:03:53;14.40;86.50
9919;DHT22;4998;51.024;13.828;2023-05-07T03:06:22;14.40;86.70
9919;DHT22;4998;51.024;13.828;2023-05-07T03:08:48;14.40;86.90
9919;DHT22;4998;51.024;13.828;2023-05-07T03:11:15;14.40;86.90
9919;DHT22;4998;51.024;13.828;2023-05-07T03:13:43;14.40;87.10
9919;DHT22;4998;51.024;13.828;2023-05-07T03:16:09;14.40;87.10
9919;DHT22;4998;51.024;13.828;2023-05-07T03:18:36;14.40;86.90
9919;DHT22;4998;51.024;13.828;2023-05-07T03:21:03;14.40;86.80
9919;DHT22;4998;51.024;13.828;2023-05-07T03:23:32;14.40;86.70
9919;DHT22;4998;51.024;13.828;2023-05-07T03:25:59;14.30;86.70
9919;DHT22;4998;51.024;13.828;2023-05-07T03:28:26;14.30;86.50
9919;DHT22;4998;51.024;13.828;2023-05-07T03:30:53;14.30;86.60
9919;DHT22;4998;51.024;13.828;2023-05-07T03:33:20;14.30;86.80
9919;DHT22;4998;51.024;13.828;2023-05-07T03:35:47;14.30;86.80
9919;DHT22;4998;51.024;13.828;2023-05-07T03:38:14;14.20;86.80
9919;DHT22;4998;51.024;13.828;2023-05-07T03:40:42;14.20;86.90
9919;DHT22;4998;51.024;13.828;2023-05-07T03:43:09;14.20;87.20
9919;DHT22;4998;51.024;13.828;2023-05-07T03:45:36;14.20;87.20
9919;DHT22;4998;51.024;13.828;2023-05-07T03:48:04;14.10;87.10
9919;DHT22;4998;51.024;13.828;2023-05-07T03:50:31;14.10;87.30
9919;DHT22;4998;51.024;13.828;2023-05-07T03:52:58;14.10;87.40
9919;DHT22;4998;51.024;13.828;2023-05-07T03:55:25;14.10;87.50
9919;DHT22;4998;51.024;13.828;2023-05-07T03:57:53;14.00;87.50
9919;DHT22;4998;51.024;13.828;2023-05-07T04:00:20;14.00;87.70
9919;DHT22;4998;51.024;13.828;2023-05-07T04:02:47;13.90;87.50
9919;DHT22;4998;51.024;13.828;2023-05-07T04:05:14;13.90;87.80
9919;DHT22;4998;51.024;13.828;2023-05-07T04:07:42;13.90;88.00
9919;DHT22;4998;51.024;13.828;2023-05-07T04:10:10;13.90;88.10
9919;DHT22;4998;51.024;13.828;2023-05-07T04:12:37;13.90;88.30
9919;DHT22;4998;51.024;13.828;2023-05-07T04:15:06;13.90;88.50
9919;DHT22;4998;51.024;13.828;2023-05-07T04:17:33;13.80;88.80
9919;DHT22;4998;51.024;13.828;2023-05-07T04:20:00;13.80;88.80
9919;DHT22;4998;51.024;13.828;2023-05-07T04:22:27;13.80;88.90
9919;DHT22;4998;51.024;13.828;2023-05-07T04:24:54;13.80;89.00
9919;DHT22;4998;51.024;13.828;2023-05-07T04:27:21;13.80;89.20
9919;DHT22;4998;51.024;13.828;2023-05-07T04:29:48;13.80;89.30
9919;DHT22;4998;51.024;13.828;2023-05-07T04:32:17;13.90;89.70
9919;DHT22;4998;51.024;13.828;2023-05-07T04:34:44;13.90;90.00
9919;DHT22;4998;51.024;13.828;2023-05-07T04:37:11;13.90;90.00
9919;DHT22;4998;51.024;13.828;2023-05-07T04:39:38;14.00;90.00
9919;DHT22;4998;51.024;13.828;2023-05-07T04:42:05;14.10;90.00
9919;DHT22;4998;51.024;13.828;2023-05-07T04:44:34;14.10;89.60
9919;DHT22;4998;51.024;13.828;2023-05-07T04:47:02;14.20;89.60
9919;DHT22;4998;51.024;13.828;2023-05-07T04:49:31;14.20;89.60
9919;DHT22;4998;51.024;13.828;2023-05-07T04:51:57;14.30;89.70
9919;DHT22;4998;51.024;13.828;2023-05-07T04:54:24;14.30;89.30
9919;DHT22;4998;51.024;13.828;2023-05-07T04:56:52;14.30;89.00
9919;DHT22;4998;51.024;13.828;2023-05-07T04:59:19;14.30;88.70
9919;DHT22;4998;51.024;13.828;2023-05-07T05:01:46;14.40;88.60
9919;DHT22;4998;51.024;13.828;2023-05-07T05:04:13;14.30;88.30
9919;DHT22;4998;51.024;13.828;2023-05-07T05:06:41;14.40;88.30
9919;DHT22;4998;51.024;13.828;2023-05-07T05:09:08;14.40;88.30
9919;DHT22;4998;51.024;13.828;2023-05-07T05:11:35;14.40;88.20
9919;DHT22;4998;51.024;13.828;2023-05-07T05:14:02;14.40;88.20
9919;DHT22;4998;51.024;13.828;2023-05-07T05:16:29;14.40;87.90
9919;DHT22;4998;51.024;13.828;2023-05-07T05:18:56;14.40;88.00
9919;DHT22;4998;51.024;13.828;2023-05-07T05:21:23;14.40;88.00
9919;DHT22;4998;51.024;13.828;2023-05-07T05:23:51;14.40;88.00
9919;DHT22;4998;51.024;13.828;2023-05-07T05:26:18;14.50;88.00
9919;DHT22;4998;51.024;13.828;2023-05-07T05:28:46;14.50;87.90
9919;DHT22;4998;51.024;13.828;2023-05-07T05:31:13;14.50;87.90
9919;DHT22;4998;51.024;13.828;2023-05-07T05:33:40;14.50;88.00
9919;DHT22;4998;51.024;13.828;2023-05-07T05:36:09;14.50;88.10
9919;DHT22;4998;51.024;13.828;2023-05-07T05:38:37;14.50;88.00
9919;DHT22;4998;51.024;13.828;2023-05-07T05:41:06;14.50;87.90
9919;DHT22;4998;51.024;13.828;2023-05-07T05:43:33;14.60;87.90
9919;DHT22;4998;51.024;13.828;2023-05-07T05:46:00;14.60;87.40
9919;DHT22;4998;51.024;13.828;2023-05-07T05:48:28;14.50;87.00
9919;DHT22;4998;51.024;13.828;2023-05-07T05:50:55;14.50;86.70
9919;DHT22;4998;51.024;13.828;2023-05-07T05:53:22;14.50;86.50
9919;DHT22;4998;51.024;13.828;2023-05-07T05:55:49;14.50;86.50
9919;DHT22;4998;51.024;13.828;2023-05-07T05:58:18;14.40;86.60
9919;DHT22;4998;51.024;13.828;2023-05-07T06:00:46;14.40;86.60
9919;DHT22;4998;51.024;13.828;2023-05-07T06:03:14;14.30;86.70
9919;DHT22;4998;51.024;13.828;2023-05-07T06:05:40;14.30;87.60
9919;DHT22;4998;51.024;13.828;2023-05-07T06:08:08;14.30;86.70
9919;DHT22;4998;51.024;13.828;2023-05-07T06:10:36;14.30;86.60
9919;DHT22;4998;51.024;13.828;2023-05-07T06:13:03;14.30;86.60
9919;DHT22;4998;51.024;13.828;2023-05-07T06:15:31;14.30;86.60
9919;DHT22;4998;51.024;13.828;2023-05-07T06:17:58;14.30;86.50
9919;DHT22;4998;51.024;13.828;2023-05-07T06:20:25;14.30;86.50
9919;DHT22;4998;51.024;13.828;2023-05-07T06:22:52;14.30;86.40
9919;DHT22;4998;51.024;13.828;2023-05-07T06:25:19;14.20;86.40
9919;DHT22;4998;51.024;13.828;2023-05-07T06:27:46;14.20;86.60
9919;DHT22;4998;51.024;13.828;2023-05-07T06:30:13;14.30;86.80
9919;DHT22;4998;51.024;13.828;2023-05-07T06:32:42;14.20;86.80
9919;DHT22;4998;51.024;13.828;2023-05-07T06:35:09;14.20;86.40
9919;DHT22;4998;51.024;13.828;2023-05-07T06:37:35;14.20;86.10
9919;DHT22;4998;51.024;13.828;2023-05-07T06:40:05;14.20;86.00
9919;DHT22;4998;51.024;13.828;2023-05-07T06:42:32;14.20;86.10
9919;DHT22;4998;51.024;13.828;2023-05-07T06:44:59;14.20;86.10
9919;DHT22;4998;51.024;13.828;2023-05-07T06:47:26;14.20;86.10
9919;DHT22;4998;51.024;13.828;2023-05-07T06:49:55;14.30;86.00
9919;DHT22;4998;51.024;13.828;2023-05-07T06:52:22;14.30;85.90
9919;DHT22;4998;51.024;13.828;2023-05-07T06:54:48;14.30;85.80
9919;DHT22;4998;51.024;13.828;2023-05-07T06:57:15;14.30;85.80
9919;DHT22;4998;51.024;13.828;2023-05-07T06:59:42;14.30;86.00
9919;DHT22;4998;51.024;13.828;2023-05-07T07:02:09;14.30;86.00
9919;DHT22;4998;51.024;13.828;2023-05-07T07:04:36;14.30;85.90
9919;DHT22;4998;51.024;13.828;2023-05-07T07:07:05;14.30;85.90
9919;DHT22;4998;51.024;13.828;2023-05-07T07:09:32;14.40;86.10
9919;DHT22;4998;51.024;13.828;2023-05-07T07:11:59;14.40;86.20
9919;DHT22;4998;51.024;13.828;2023-05-07T07:14:26;14.40;86.30
9919;DHT22;4998;51.024;13.828;2023-05-07T07:16:53;14.50;86.30
9919;DHT22;4998;51.024;13.828;2023-05-07T07:19:20;14.50;86.20
9919;DHT22;4998;51.024;13.828;2023-05-07T07:21:47;14.50;85.90
9919;DHT22;4998;51.024;13.828;2023-05-07T07:24:15;14.50;85.80
9919;DHT22;4998;51.024;13.828;2023-05-07T07:26:46;14.50;85.90
9919;DHT22;4998;51.024;13.828;2023-05-07T07:29:13;14.50;85.80
9919;DHT22;4998;51.024;13.828;2023-05-07T07:31:40;14.50;85.70
9919;DHT22;4998;51.024;13.828;2023-05-07T07:34:07;14.60;85.50
9919;DHT22;4998;51.024;13.828;2023-05-07T07:36:34;14.50;85.20
9919;DHT22;4998;51.024;13.828;2023-05-07T07:39:01;14.50;85.20
9919;DHT22;4998;51.024;13.828;2023-05-07T07:41:29;14.50;85.20
9919;DHT22;4998;51.024;13.828;2023-05-07T07:43:56;14.50;85.20
9919;DHT22;4998;51.024;13.828;2023-05-07T07:46:24;14.50;85.30
9919;DHT22;4998;51.024;13.828;2023-05-07T07:48:52;14.50;85.40
9919;DHT22;4998;51.024;13.828;2023-05-07T07:51:19;14.50;85.20
9919;DHT22;4998;51.024;13.828;2023-05-07T07:53:46;14.60;85.20
9919;DHT22;4998;51.024;13.828;2023-05-07T07:56:13;14.60;85.20
9919;DHT22;4998;51.024;13.828;2023-05-07T07:58:42;14.60;84.90
9919;DHT22;4998;51.024;13.828;2023-05-07T08:01:09;14.60;84.60
9919;DHT22;4998;51.024;13.828;2023-05-07T08:03:37;14.60;84.50
9919;DHT22;4998;51.024;13.828;2023-05-07T08:06:04;14.70;84.50
9919;DHT22;4998;51.024;13.828;2023-05-07T08:08:32;14.70;84.30
9919;DHT22;4998;51.024;13.828;2023-05-07T08:10:59;14.70;84.10
9919;DHT22;4998;51.024;13.828;2023-05-07T08:13:26;14.70;84.20
9919;DHT22;4998;51.024;13.828;2023-05-07T08:15:54;14.70;84.30
9919;DHT22;4998;51.024;13.828;2023-05-07T08:18:21;14.70;84.80
9919;DHT22;4998;51.024;13.828;2023-05-07T08:20:50;14.70;84.50
9919;DHT22;4998;51.024;13.828;2023-05-07T08:23:17;14.70;84.50
9919;DHT22;4998;51.024;13.828;2023-05-07T08:25:44;14.80;84.30
9919;DHT22;4998;51.024;13.828;2023-05-07T08:28:11;14.80;83.90
9919;DHT22;4998;51.024;13.828;2023-05-07T08:30:38;14.80;83.80
9919;DHT22;4998;51.024;13.828;2023-05-07T08:33:06;14.80;83.90
9919;DHT22;4998;51.024;13.828;2023-05-07T08:35:35;14.90;84.00
9919;DHT22;4998;51.024;13.828;2023-05-07T08:38:02;14.90;84.10
9919;DHT22;4998;51.024;13.828;2023-05-07T08:40:29;14.90;83.90
9919;DHT22;4998;51.024;13.828;2023-05-07T08:43:00;15.00;83.70
9919;DHT22;4998;51.024;13.828;2023-05-07T08:45:28;15.10;83.50
9919;DHT22;4998;51.024;13.828;2023-05-07T08:48:01;15.10;83.30
9919;DHT22;4998;51.024;13.828;2023-05-07T08:50:30;15.10;83.00
9919;DHT22;4998;51.024;13.828;2023-05-07T08:52:57;15.10;82.80
9919;DHT22;4998;51.024;13.828;2023-05-07T08:55:25;15.20;82.80
9919;DHT22;4998;51.024;13.828;2023-05-07T08:57:52;15.20;82.70
9919;DHT22;4998;51.024;13.828;2023-05-07T09:00:19;15.20;82.80
9919;DHT22;4998;51.024;13.828;2023-05-07T09:02:46;15.20;83.00
9919;DHT22;4998;51.024;13.828;2023-05-07T09:05:14;15.20;83.00
9919;DHT22;4998;51.024;13.828;2023-05-07T09:07:42;15.20;82.90
9919;DHT22;4998;51.024;13.828;2023-05-07T09:10:09;15.30;83.10
9919;DHT22;4998;51.024;13.828;2023-05-07T09:12:36;15.30;82.70
9919;DHT22;4998;51.024;13.828;2023-05-07T09:15:06;15.30;82.50
9919;DHT22;4998;51.024;13.828;2023-05-07T09:17:33;15.40;82.20
9919;DHT22;4998;51.024;13.828;2023-05-07T09:20:02;15.40;82.10
9919;DHT22;4998;51.024;13.828;2023-05-07T09:22:31;15.30;82.00
9919;DHT22;4998;51.024;13.828;2023-05-07T09:25:00;15.30;81.90
9919;DHT22;4998;51.024;13.828;2023-05-07T09:27:27;15.30;82.00
9919;DHT22;4998;51.024;13.828;2023-05-07T09:29:54;15.30;82.10
9919;DHT22;4998;51.024;13.828;2023-05-07T09:32:21;15.30;82.00
9919;DHT22;4998;51.024;13.828;2023-05-07T09:34:48;15.30;81.90
9919;DHT22;4998;51.024;13.828;2023-05-07T09:37:15;15.30;81.60
9919;DHT22;4998;51.024;13.828;2023-05-07T09:39:44;15.40;81.20
9919;DHT22;4998;51.024;13.828;2023-05-07T09:42:13;15.40;81.00
9919;DHT22;4998;51.024;13.828;2023-05-07T09:44:41;15.40;80.70
9919;DHT22;4998;51.024;13.828;2023-05-07T09:47:08;15.40;81.50
9919;DHT22;4998;51.024;13.828;2023-05-07T09:49:36;15.40;80.90
9919;DHT22;4998;51.024;13.828;2023-05-07T09:52:05;15.40;80.60
9919;DHT22;4998;51.024;13.828;2023-05-07T09:54:35;15.50;80.20
9919;DHT22;4998;51.024;13.828;2023-05-07T09:57:04;15.50;81.00
9919;DHT22;4998;51.024;13.828;2023-05-07T09:59:34;15.60;80.20
9919;DHT22;4998;51.024;13.828;2023-05-07T10:02:04;15.60;79.70
9919;DHT22;4998;51.024;13.828;2023-05-07T10:04:32;15.60;79.80
9919;DHT22;4998;51.024;13.828;2023-05-07T10:06:59;15.60;79.60
9919;DHT22;4998;51.024;13.828;2023-05-07T10:09:26;15.70;79.60
9919;DHT22;4998;51.024;13.828;2023-05-07T10:11:54;15.70;79.50
9919;DHT22;4998;51.024;13.828;2023-05-07T10:14:21;15.70;79.20
9919;DHT22;4998;51.024;13.828;2023-05-07T10:16:50;15.70;79.00
9919;DHT22;4998;51.024;13.828;2023-05-07T10:19:18;15.70;79.20
9919;DHT22;4998;51.024;13.828;2023-05-07T10:21:54;15.80;78.90
9919;DHT22;4998;51.024;13.828;2023-05-07T10:24:26;15.70;78.80
9919;DHT22;4998;51.024;13.828;2023-05-07T10:26:54;15.80;78.70
9919;DHT22;4998;51.024;13.828;2023-05-07T10:29:32;15.80;78.70
9919;DHT22;4998;51.024;13.828;2023-05-07T10:32:19;15.80;78.50
9919;DHT22;4998;51.024;13.828;2023-05-07T10:34:55;15.80;78.20
9919;DHT22;4998;51.024;13.828;2023-05-07T10:37:23;15.80;78.30
9919;DHT22;4998;51.024;13.828;2023-05-07T10:39:51;15.80;78.70
9919;DHT22;4998;51.024;13.828;2023-05-07T10:42:18;15.90;78.80
9919;DHT22;4998;51.024;13.828;2023-05-07T10:44:46;15.90;79.00
9919;DHT22;4998;51.024;13.828;2023-05-07T10:47:16;16.00;79.10
9919;DHT22;4998;51.024;13.828;2023-05-07T10:50:21;16.10;78.40
9919;DHT22;4998;51.024;13.828;2023-05-07T10:53:25;16.20;78.00
9919;DHT22;4998;51.024;13.828;2023-05-07T10:56:25;16.20;77.70
9919;DHT22;4998;51.024;13.828;2023-05-07T10:58:53;16.30;77.50
9919;DHT22;4998;51.024;13.828;2023-05-07T11:01:50;16.30;77.40
9919;DHT22;4998;51.024;13.828;2023-05-07T11:04:19;16.30;77.00
9919;DHT22;4998;51.024;13.828;2023-05-07T11:10:03;16.40;76.80
9919;DHT22;4998;51.024;13.828;2023-05-07T11:12:53;16.50;76.50
9919;DHT22;4998;51.024;13.828;2023-05-07T11:15:35;16.50;76.80
9919;DHT22;4998;51.024;13.828;2023-05-07T11:18:02;16.60;76.60
9919;DHT22;4998;51.024;13.828;2023-05-07T11:20:52;16.60;76.40
9919;DHT22;4998;51.024;13.828;2023-05-07T11:23:56;16.70;76.10
9919;DHT22;4998;51.024;13.828;2023-05-07T11:26:29;16.70;76.20
9919;DHT22;4998;51.024;13.828;2023-05-07T11:28:57;16.80;76.10
9919;DHT22;4998;51.024;13.828;2023-05-07T11:31:27;16.80;75.80
9919;DHT22;4998;51.024;13.828;2023-05-07T11:33:55;16.90;75.60
9919;DHT22;4998;51.024;13.828;2023-05-07T11:36:24;16.90;75.10
9919;DHT22;4998;51.024;13.828;2023-05-07T11:38:52;17.00;75.80
9919;DHT22;4998;51.024;13.828;2023-05-07T11:41:19;17.00;74.90
9919;DHT22;4998;51.024;13.828;2023-05-07T11:43:57;17.00;74.70
9919;DHT22;4998;51.024;13.828;2023-05-07T11:46:26;17.00;74.40
9919;DHT22;4998;51.024;13.828;2023-05-07T11:48:53;17.00;74.20
9919;DHT22;4998;51.024;13.828;2023-05-07T11:51:21;17.00;73.70
9919;DHT22;4998;51.024;13.828;2023-05-07T11:53:50;17.00;73.40
9919;DHT22;4998;51.024;13.828;2023-05-07T11:56:18;17.00;73.20
9919;DHT22;4998;51.024;13.828;2023-05-07T11:58:47;17.00;73.40
9919;DHT22;4998;51.024;13.828;2023-05-07T12:01:14;17.00;73.60
9919;DHT22;4998;51.024;13.828;2023-05-07T12:03:43;17.00;73.90
9919;DHT22;4998;51.024;13.828;2023-05-07T12:06:13;17.10;74.00
9919;DHT22;4998;51.024;13.828;2023-05-07T12:08:41;17.10;73.90
9919;DHT22;4998;51.024;13.828;2023-05-07T12:11:12;17.20;73.70
9919;DHT22;4998;51.024;13.828;2023-05-07T12:13:41;17.20;73.70
9919;DHT22;4998;51.024;13.828;2023-05-07T12:16:08;17.20;73.60
9919;DHT22;4998;51.024;13.828;2023-05-07T12:18:36;17.30;73.60
9919;DHT22;4998;51.024;13.828;2023-05-07T12:21:05;17.30;73.20
9919;DHT22;4998;51.024;13.828;2023-05-07T12:23:33;17.30;72.80
9919;DHT22;4998;51.024;13.828;2023-05-07T12:26:01;17.30;72.60
9919;DHT22;4998;51.024;13.828;2023-05-07T12:28:31;17.30;72.30
9919;DHT22;4998;51.024;13.828;2023-05-07T12:30:58;17.30;71.90
9919;DHT22;4998;51.024;13.828;2023-05-07T12:33:26;17.30;71.90
9919;DHT22;4998;51.024;13.828;2023-05-07T12:35:55;17.30;71.60
9919;DHT22;4998;51.024;13.828;2023-05-07T12:38:22;17.30;71.60
9919;DHT22;4998;51.024;13.828;2023-05-07T12:40:53;17.30;72.00
9919;DHT22;4998;51.024;13.828;2023-05-07T12:43:24;17.30;72.20
9919;DHT22;4998;51.024;13.828;2023-05-07T12:45:54;17.30;72.50
9919;DHT22;4998;51.024;13.828;2023-05-07T12:48:22;17.40;72.50
9919;DHT22;4998;51.024;13.828;2023-05-07T12:50:53;17.40;72.60
9919;DHT22;4998;51.024;13.828;2023-05-07T12:53:22;17.50;72.80
9919;DHT22;4998;51.024;13.828;2023-05-07T12:55:50;17.50;72.70
9919;DHT22;4998;51.024;13.828;2023-05-07T12:58:19;17.60;72.60
9919;DHT22;4998;51.024;13.828;2023-05-07T13:00:48;17.70;72.20
9919;DHT22;4998;51.024;13.828;2023-05-07T13:03:24;17.70;71.70
9919;DHT22;4998;51.024;13.828;2023-05-07T13:05:52;17.80;71.10
9919;DHT22;4998;51.024;13.828;2023-05-07T13:08:32;17.80;71.30
9919;DHT22;4998;51.024;13.828;2023-05-07T13:11:01;17.80;70.50
9919;DHT22;4998;51.024;13.828;2023-05-07T13:13:29;17.80;70.10
9919;DHT22;4998;51.024;13.828;2023-05-07T13:15:56;17.80;70.00
9919;DHT22;4998;51.024;13.828;2023-05-07T13:18:26;17.80;70.00
9919;DHT22;4998;51.024;13.828;2023-05-07T13:20:53;17.80;69.70
9919;DHT22;4998;51.024;13.828;2023-05-07T13:23:20;17.80;69.70
9919;DHT22;4998;51.024;13.828;2023-05-07T13:25:48;17.90;69.50
9919;DHT22;4998;51.024;13.828;2023-05-07T13:28:15;17.90;69.00
9919;DHT22;4998;51.024;13.828;2023-05-07T13:30:42;17.80;68.80
9919;DHT22;4998;51.024;13.828;2023-05-07T13:33:09;17.80;68.90
9919;DHT22;4998;51.024;13.828;2023-05-07T13:35:37;17.80;68.60
9919;DHT22;4998;51.024;13.828;2023-05-07T13:38:05;17.80;68.30
9919;DHT22;4998;51.024;13.828;2023-05-07T13:40:32;17.80;68.10
9919;DHT22;4998;51.024;13.828;2023-05-07T13:42:59;17.80;68.40
9919;DHT22;4998;51.024;13.828;2023-05-07T13:45:27;17.80;68.60
9919;DHT22;4998;51.024;13.828;2023-05-07T13:47:55;17.80;68.50
9919;DHT22;4998;51.024;13.828;2023-05-07T13:50:22;17.80;68.50
9919;DHT22;4998;51.024;13.828;2023-05-07T13:52:50;17.90;68.40
9919;DHT22;4998;51.024;13.828;2023-05-07T13:55:18;17.90;68.20
9919;DHT22;4998;51.024;13.828;2023-05-07T13:57:45;17.90;68.40
9919;DHT22;4998;51.024;13.828;2023-05-07T14:00:13;18.00;68.10
9919;DHT22;4998;51.024;13.828;2023-05-07T14:02:41;18.00;68.00
9919;DHT22;4998;51.024;13.828;2023-05-07T14:05:09;18.10;67.90
9919;DHT22;4998;51.024;13.828;2023-05-07T14:07:36;18.10;67.70
9919;DHT22;4998;51.024;13.828;2023-05-07T14:10:06;18.10;67.00
9919;DHT22;4998;51.024;13.828;2023-05-07T14:12:33;18.10;66.60
9919;DHT22;4998;51.024;13.828;2023-05-07T14:15:00;18.10;66.50
9919;DHT22;4998;51.024;13.828;2023-05-07T14:17:27;18.10;66.00
9919;DHT22;4998;51.024;13.828;2023-05-07T14:19:54;18.10;66.00
9919;DHT22;4998;51.024;13.828;2023-05-07T14:22:22;18.00;66.10
9919;DHT22;4998;51.024;13.828;2023-05-07T14:24:49;18.00;66.00
9919;DHT22;4998;51.024;13.828;2023-05-07T14:27:18;18.00;66.00
9919;DHT22;4998;51.024;13.828;2023-05-07T14:29:45;18.00;65.80
9919;DHT22;4998;51.024;13.828;2023-05-07T14:32:16;18.00;65.80
9919;DHT22;4998;51.024;13.828;2023-05-07T14:34:43;18.00;65.90
9919;DHT22;4998;51.024;13.828;2023-05-07T14:37:11;18.00;65.50
9919;DHT22;4998;51.024;13.828;2023-05-07T14:39:38;17.90;65.40
9919;DHT22;4998;51.024;13.828;2023-05-07T14:42:05;17.90;65.40
9919;DHT22;4998;51.024;13.828;2023-05-07T14:44:34;17.90;65.40
9919;DHT22;4998;51.024;13.828;2023-05-07T14:47:01;17.80;65.20
9919;DHT22;4998;51.024;13.828;2023-05-07T14:49:28;17.80;65.40
9919;DHT22;4998;51.024;13.828;2023-05-07T14:51:57;17.80;65.30
9919;DHT22;4998;51.024;13.828;2023-05-07T14:54:24;17.90;65.00
9919;DHT22;4998;51.024;13.828;2023-05-07T14:56:51;17.80;65.10
9919;DHT22;4998;51.024;13.828;2023-05-07T14:59:19;17.80;65.00
9919;DHT22;4998;51.024;13.828;2023-05-07T15:01:48;17.80;65.20
9919;DHT22;4998;51.024;13.828;2023-05-07T15:04:15;17.70;65.20
9919;DHT22;4998;51.024;13.828;2023-05-07T15:06:42;17.70;65.40
9919;DHT22;4998;51.024;13.828;2023-05-07T15:09:09;17.70;65.40
9919;DHT22;4998;51.024;13.828;2023-05-07T15:11:36;17.70;65.10
9919;DHT22;4998;51.024;13.828;2023-05-07T15:14:03;17.70;64.80
9919;DHT22;4998;51.024;13.828;2023-05-07T15:16:30;17.60;64.80
9919;DHT22;4998;51.024;13.828;2023-05-07T15:18:59;17.60;64.90
9919;DHT22;4998;51.024;13.828;2023-05-07T15:21:26;17.50;65.10
9919;DHT22;4998;51.024;13.828;2023-05-07T15:23:53;17.50;65.20
9919;DHT22;4998;51.024;13.828;2023-05-07T15:26:20;17.50;65.00
9919;DHT22;4998;51.024;13.828;2023-05-07T15:28:47;17.50;64.80
9919;DHT22;4998;51.024;13.828;2023-05-07T15:31:15;17.40;64.70
9919;DHT22;4998;51.024;13.828;2023-05-07T15:33:43;17.40;64.60
9919;DHT22;4998;51.024;13.828;2023-05-07T15:36:12;17.30;64.40
9919;DHT22;4998;51.024;13.828;2023-05-07T15:38:39;17.30;64.30
9919;DHT22;4998;51.024;13.828;2023-05-07T15:41:05;17.30;64.60
9919;DHT22;4998;51.024;13.828;2023-05-07T15:43:32;17.20;64.70
9919;DHT22;4998;51.024;13.828;2023-05-07T15:45:59;17.20;65.00
9919;DHT22;4998;51.024;13.828;2023-05-07T15:48:26;17.20;65.10
9919;DHT22;4998;51.024;13.828;2023-05-07T15:50:53;17.20;65.10
9919;DHT22;4998;51.024;13.828;2023-05-07T15:53:22;17.20;65.10
9919;DHT22;4998;51.024;13.828;2023-05-07T15:55:49;17.10;65.00